sensor_id;sensor_type;location;lat;lon;timestamp;P1;durP1;ratioP1;P2;durP2;ratioP2
52674;SDS011;38569;52.722;6.440;2022-10-16T00:01:17;9.52;;;2.92;;
52674;SDS011;38569;52.722;6.440;2022-10-16T00:03:44;10.25;;;2.20;;
52674;SDS011;38569;52.722;6.440;2022-10-16T00:06:11;10.18;;;3.45;;
52674;SDS011;38569;52.722;6.440;2022-10-16T00:08:37;7.55;;;2.83;;
52674;SDS011;38569;52.722;6.440;2022-10-16T00:11:05;13.52;;;3.17;;
52674;SDS011;38569;52.722;6.440;2022-10-16T00:13:36;5.95;;;2.42;;
52674;SDS011;38569;52.722;6.440;2022-10-16T00:16:03;10.32;;;3.03;;
52674;SDS011;38569;52.722;6.440;2022-10-16T00:18:29;8.65;;;3.55;;
52674;SDS011;38569;52.722;6.440;2022-10-16T00:20:56;9.18;;;3.33;;
52674;SDS011;38569;52.722;6.440;2022-10-16T00:23:30;6.90;;;3.53;;
52674;SDS011;38569;52.722;6.440;2022-10-16T00:25:57;6.68;;;3.15;;
52674;SDS011;38569;52.722;6.440;2022-10-16T00:28:24;8.80;;;3.15;;
52674;SDS011;38569;52.722;6.440;2022-10-16T00:30:50;5.00;;;2.75;;
52674;SDS011;38569;52.722;6.440;2022-10-16T00:33:16;8.30;;;2.38;;
52674;SDS011;38569;52.722;6.440;2022-10-16T00:35:42;7.88;;;2.55;;
52674;SDS011;38569;52.722;6.440;2022-10-16T00:38:08;7.82;;;3.33;;
52674;SDS011;38569;52.722;6.440;2022-10-16T00:40:34;7.78;;;1.90;;
52674;SDS011;38569;52.722;6.440;2022-10-16T00:43:00;5.13;;;2.50;;
52674;SDS011;38569;52.722;6.440;2022-10-16T00:45:26;5.13;;;1.98;;
52674;SDS011;38569;52.722;6.440;2022-10-16T00:47:52;9.57;;;2.50;;
52674;SDS011;38569;52.722;6.440;2022-10-16T00:50:30;11.82;;;3.08;;
52674;SDS011;38569;52.722;6.440;2022-10-16T00:52:58;6.18;;;1.67;;
52674;SDS011;38569;52.722;6.440;2022-10-16T00:55:25;7.38;;;1.95;;
52674;SDS011;38569;52.722;6.440;2022-10-16T00:57:53;4.47;;;1.98;;
52674;SDS011;38569;52.722;6.440;2022-10-16T01:00:23;5.75;;;2.28;;
52674;SDS011;38569;52.722;6.440;2022-10-16T01:02:58;10.93;;;2.10;;
52674;SDS011;38569;52.722;6.440;2022-10-16T01:05:27;4.68;;;1.88;;
52674;SDS011;38569;52.722;6.440;2022-10-16T01:10:27;5.53;;;1.83;;
52674;SDS011;38569;52.722;6.440;2022-10-16T01:13:21;8.00;;;2.92;;
52674;SDS011;38569;52.722;6.440;2022-10-16T01:15:54;8.13;;;2.63;;
52674;SDS011;38569;52.722;6.440;2022-10-16T01:21:02;14.20;;;3.08;;
52674;SDS011;38569;52.722;6.440;2022-10-16T01:29:34;6.03;;;1.83;;
52674;SDS011;38569;52.722;6.440;2022-10-16T01:32:09;6.97;;;2.22;;
52674;SDS011;38569;52.722;6.440;2022-10-16T01:35:14;5.97;;;2.50;;
52674;SDS011;38569;52.722;6.440;2022-10-16T01:38:10;8.52;;;2.83;;
52674;SDS011;38569;52.722;6.440;2022-10-16T01:40:48;6.85;;;2.22;;
52674;SDS011;38569;52.722;6.440;2022-10-16T01:43:22;7.18;;;2.03;;
52674;SDS011;38569;52.722;6.440;2022-10-16T01:45:52;6.43;;;3.08;;
52674;SDS011;38569;52.722;6.440;2022-10-16T01:48:18;6.38;;;2.33;;
52674;SDS011;38569;52.722;6.440;2022-10-16T01:50:49;4.28;;;2.63;;
52674;SDS011;38569;52.722;6.440;2022-10-16T01:53:22;7.50;;;2.38;;
52674;SDS011;38569;52.722;6.440;2022-10-16T01:55:49;8.93;;;2.70;;
52674;SDS011;38569;52.722;6.440;2022-10-16T01:58:17;6.43;;;2.60;;
52674;SDS011;38569;52.722;6.440;2022-10-16T02:00:44;7.88;;;2.20;;
52674;SDS011;38569;52.722;6.440;2022-10-16T02:03:12;7.40;;;2.45;;
52674;SDS011;38569;52.722;6.440;2022-10-16T02:05:41;4.68;;;2.40;;
52674;SDS011;38569;52.722;6.440;2022-10-16T02:08:11;4.03;;;2.65;;
52674;SDS011;38569;52.722;6.440;2022-10-16T02:10:37;5.10;;;2.17;;
52674;SDS011;38569;52.722;6.440;2022-10-16T02:13:05;4.35;;;2.22;;
52674;SDS011;38569;52.722;6.440;2022-10-16T02:18:04;7.45;;;2.92;;
52674;SDS011;38569;52.722;6.440;2022-10-16T02:20:37;6.00;;;2.20;;
52674;SDS011;38569;52.722;6.440;2022-10-16T02:23:10;6.78;;;2.80;;
52674;SDS011;38569;52.722;6.440;2022-10-16T02:25:43;6.57;;;2.67;;
52674;SDS011;38569;52.722;6.440;2022-10-16T02:28:15;5.25;;;2.60;;
52674;SDS011;38569;52.722;6.440;2022-10-16T02:30:51;6.80;;;2.33;;
52674;SDS011;38569;52.722;6.440;2022-10-16T02:33:31;8.23;;;2.50;;
52674;SDS011;38569;52.722;6.440;2022-10-16T02:35:58;7.88;;;2.40;;
52674;SDS011;38569;52.722;6.440;2022-10-16T02:38:24;3.55;;;2.08;;
52674;SDS011;38569;52.722;6.440;2022-10-16T02:40:51;6.50;;;2.53;;
52674;SDS011;38569;52.722;6.440;2022-10-16T02:43:17;5.70;;;2.78;;
52674;SDS011;38569;52.722;6.440;2022-10-16T02:45:44;5.13;;;3.15;;
52674;SDS011;38569;52.722;6.440;2022-10-16T02:48:10;6.65;;;2.33;;
52674;SDS011;38569;52.722;6.440;2022-10-16T02:50:35;5.20;;;2.47;;
52674;SDS011;38569;52.722;6.440;2022-10-16T02:53:01;6.43;;;2.40;;
52674;SDS011;38569;52.722;6.440;2022-10-16T02:55:27;7.93;;;3.42;;
52674;SDS011;38569;52.722;6.440;2022-10-16T02:57:53;8.02;;;2.40;;
52674;SDS011;38569;52.722;6.440;2022-10-16T03:00:19;4.05;;;2.50;;
52674;SDS011;38569;52.722;6.440;2022-10-16T03:02:45;6.13;;;2.70;;
52674;SDS011;38569;52.722;6.440;2022-10-16T03:05:11;7.63;;;2.83;;
52674;SDS011;38569;52.722;6.440;2022-10-16T03:07:37;5.03;;;2.22;;
52674;SDS011;38569;52.722;6.440;2022-10-16T03:10:03;6.88;;;2.95;;
52674;SDS011;38569;52.722;6.440;2022-10-16T03:12:29;7.10;;;2.90;;
52674;SDS011;38569;52.722;6.440;2022-10-16T03:14:55;7.90;;;2.80;;
52674;SDS011;38569;52.722;6.440;2022-10-16T03:17:22;7.45;;;3.17;;
52674;SDS011;38569;52.722;6.440;2022-10-16T03:19:48;7.03;;;2.97;;
52674;SDS011;38569;52.722;6.440;2022-10-16T03:22:14;7.80;;;3.25;;
52674;SDS011;38569;52.722;6.440;2022-10-16T03:24:40;10.95;;;2.90;;
52674;SDS011;38569;52.722;6.440;2022-10-16T03:27:05;5.68;;;2.85;;
52674;SDS011;38569;52.722;6.440;2022-10-16T03:29:31;4.68;;;2.47;;
52674;SDS011;38569;52.722;6.440;2022-10-16T03:31:58;6.10;;;2.63;;
52674;SDS011;38569;52.722;6.440;2022-10-16T03:34:24;4.60;;;2.60;;
52674;SDS011;38569;52.722;6.440;2022-10-16T03:36:50;5.82;;;2.78;;
52674;SDS011;38569;52.722;6.440;2022-10-16T03:39:17;4.97;;;3.13;;
52674;SDS011;38569;52.722;6.440;2022-10-16T03:41:42;4.63;;;2.90;;
52674;SDS011;38569;52.722;6.440;2022-10-16T03:44:08;6.10;;;2.60;;
52674;SDS011;38569;52.722;6.440;2022-10-16T03:46:34;5.82;;;2.88;;
52674;SDS011;38569;52.722;6.440;2022-10-16T03:48:59;6.68;;;3.05;;
52674;SDS011;38569;52.722;6.440;2022-10-16T03:51:25;5.32;;;3.13;;
52674;SDS011;38569;52.722;6.440;2022-10-16T03:53:51;7.10;;;2.80;;
52674;SDS011;38569;52.722;6.440;2022-10-16T03:56:16;7.97;;;2.85;;
52674;SDS011;38569;52.722;6.440;2022-10-16T03:58:42;5.57;;;2.90;;
52674;SDS011;38569;52.722;6.440;2022-10-16T04:01:08;8.85;;;2.90;;
52674;SDS011;38569;52.722;6.440;2022-10-16T04:03:34;4.25;;;3.08;;
52674;SDS011;38569;52.722;6.440;2022-10-16T04:05:59;6.43;;;3.10;;
52674;SDS011;38569;52.722;6.440;2022-10-16T04:08:25;5.30;;;3.20;;
52674;SDS011;38569;52.722;6.440;2022-10-16T04:10:51;7.68;;;3.35;;
52674;SDS011;38569;52.722;6.440;2022-10-16T04:13:17;9.85;;;3.83;;
52674;SDS011;38569;52.722;6.440;2022-10-16T04:15:44;6.50;;;2.78;;
52674;SDS011;38569;52.722;6.440;2022-10-16T04:18:10;5.60;;;3.53;;
52674;SDS011;38569;52.722;6.440;2022-10-16T04:20:36;6.10;;;3.38;;
52674;SDS011;38569;52.722;6.440;2022-10-16T04:23:02;8.50;;;3.38;;
52674;SDS011;38569;52.722;6.440;2022-10-16T04:25:28;6.53;;;3.53;;
52674;SDS011;38569;52.722;6.440;2022-10-16T04:27:54;4.65;;;3.30;;
52674;SDS011;38569;52.722;6.440;2022-10-16T04:30:20;7.30;;;4.35;;
52674;SDS011;38569;52.722;6.440;2022-10-16T04:32:50;7.65;;;3.85;;
52674;SDS011;38569;52.722;6.440;2022-10-16T04:35:17;7.75;;;3.13;;
52674;SDS011;38569;52.722;6.440;2022-10-16T04:37:43;5.20;;;3.30;;
52674;SDS011;38569;52.722;6.440;2022-10-16T04:40:09;6.07;;;3.60;;
52674;SDS011;38569;52.722;6.440;2022-10-16T04:42:35;5.35;;;3.35;;
52674;SDS011;38569;52.722;6.440;2022-10-16T04:45:01;7.45;;;3.38;;
52674;SDS011;38569;52.722;6.440;2022-10-16T04:47:28;5.38;;;3.45;;
52674;SDS011;38569;52.722;6.440;2022-10-16T04:49:53;7.38;;;3.08;;
52674;SDS011;38569;52.722;6.440;2022-10-16T04:52:19;3.85;;;3.53;;
52674;SDS011;38569;52.722;6.440;2022-10-16T04:54:46;7.57;;;3.55;;
52674;SDS011;38569;52.722;6.440;2022-10-16T04:57:12;6.45;;;3.70;;
52674;SDS011;38569;52.722;6.440;2022-10-16T04:59:38;5.68;;;3.70;;
52674;SDS011;38569;52.722;6.440;2022-10-16T05:02:03;7.47;;;3.55;;
52674;SDS011;38569;52.722;6.440;2022-10-16T05:04:29;14.48;;;3.72;;
52674;SDS011;38569;52.722;6.440;2022-10-16T05:06:55;4.88;;;3.20;;
52674;SDS011;38569;52.722;6.440;2022-10-16T05:09:20;6.15;;;3.30;;
52674;SDS011;38569;52.722;6.440;2022-10-16T05:11:46;13.88;;;3.55;;
52674;SDS011;38569;52.722;6.440;2022-10-16T05:14:12;4.38;;;3.78;;
52674;SDS011;38569;52.722;6.440;2022-10-16T05:16:37;9.25;;;3.60;;
52674;SDS011;38569;52.722;6.440;2022-10-16T05:19:03;7.47;;;3.55;;
52674;SDS011;38569;52.722;6.440;2022-10-16T05:21:29;5.68;;;3.58;;
52674;SDS011;38569;52.722;6.440;2022-10-16T05:23:55;7.82;;;3.38;;
52674;SDS011;38569;52.722;6.440;2022-10-16T05:26:21;7.93;;;3.28;;
52674;SDS011;38569;52.722;6.440;2022-10-16T05:28:46;6.05;;;3.50;;
52674;SDS011;38569;52.722;6.440;2022-10-16T05:31:12;10.73;;;3.83;;
52674;SDS011;38569;52.722;6.440;2022-10-16T05:33:38;4.93;;;2.97;;
52674;SDS011;38569;52.722;6.440;2022-10-16T05:36:04;7.15;;;3.58;;
52674;SDS011;38569;52.722;6.440;2022-10-16T05:38:33;7.35;;;3.90;;
52674;SDS011;38569;52.722;6.440;2022-10-16T05:40:59;6.30;;;2.85;;
52674;SDS011;38569;52.722;6.440;2022-10-16T05:43:26;7.13;;;2.95;;
52674;SDS011;38569;52.722;6.440;2022-10-16T05:45:56;5.07;;;3.13;;
52674;SDS011;38569;52.722;6.440;2022-10-16T05:48:27;4.47;;;3.22;;
52674;SDS011;38569;52.722;6.440;2022-10-16T05:50:56;4.50;;;2.63;;
52674;SDS011;38569;52.722;6.440;2022-10-16T05:53:30;5.80;;;2.95;;
52674;SDS011;38569;52.722;6.440;2022-10-16T05:55:57;5.80;;;3.15;;
52674;SDS011;38569;52.722;6.440;2022-10-16T05:58:23;6.13;;;3.50;;
52674;SDS011;38569;52.722;6.440;2022-10-16T06:00:56;4.00;;;2.78;;
52674;SDS011;38569;52.722;6.440;2022-10-16T06:03:26;10.75;;;3.30;;
52674;SDS011;38569;52.722;6.440;2022-10-16T06:05:52;5.65;;;2.83;;
52674;SDS011;38569;52.722;6.440;2022-10-16T06:08:19;5.18;;;2.60;;
52674;SDS011;38569;52.722;6.440;2022-10-16T06:10:46;4.63;;;2.90;;
52674;SDS011;38569;52.722;6.440;2022-10-16T06:13:12;5.35;;;2.92;;
52674;SDS011;38569;52.722;6.440;2022-10-16T06:15:39;4.97;;;2.63;;
52674;SDS011;38569;52.722;6.440;2022-10-16T06:18:07;5.32;;;3.20;;
52674;SDS011;38569;52.722;6.440;2022-10-16T06:20:34;5.18;;;3.00;;
52674;SDS011;38569;52.722;6.440;2022-10-16T06:22:59;5.68;;;3.05;;
52674;SDS011;38569;52.722;6.440;2022-10-16T06:25:25;7.82;;;2.90;;
52674;SDS011;38569;52.722;6.440;2022-10-16T06:27:51;8.88;;;2.92;;
52674;SDS011;38569;52.722;6.440;2022-10-16T06:30:17;3.80;;;2.50;;
52674;SDS011;38569;52.722;6.440;2022-10-16T06:32:42;7.85;;;2.47;;
52674;SDS011;38569;52.722;6.440;2022-10-16T06:35:08;7.50;;;3.30;;
52674;SDS011;38569;52.722;6.440;2022-10-16T06:37:34;5.05;;;2.47;;
52674;SDS011;38569;52.722;6.440;2022-10-16T06:39:59;8.90;;;2.33;;
52674;SDS011;38569;52.722;6.440;2022-10-16T06:42:25;5.28;;;2.50;;
52674;SDS011;38569;52.722;6.440;2022-10-16T06:44:51;5.07;;;2.78;;
52674;SDS011;38569;52.722;6.440;2022-10-16T06:47:17;5.07;;;2.25;;
52674;SDS011;38569;52.722;6.440;2022-10-16T06:49:42;4.30;;;2.10;;
52674;SDS011;38569;52.722;6.440;2022-10-16T06:52:08;4.28;;;2.20;;
52674;SDS011;38569;52.722;6.440;2022-10-16T06:54:34;5.43;;;3.13;;
52674;SDS011;38569;52.722;6.440;2022-10-16T06:57:00;5.75;;;2.50;;
52674;SDS011;38569;52.722;6.440;2022-10-16T06:59:26;8.80;;;2.33;;
52674;SDS011;38569;52.722;6.440;2022-10-16T07:01:52;6.20;;;2.53;;
52674;SDS011;38569;52.722;6.440;2022-10-16T07:04:18;4.53;;;2.30;;
52674;SDS011;38569;52.722;6.440;2022-10-16T07:06:44;8.32;;;3.53;;
52674;SDS011;38569;52.722;6.440;2022-10-16T07:09:10;5.60;;;2.28;;
52674;SDS011;38569;52.722;6.440;2022-10-16T07:11:36;5.40;;;2.70;;
52674;SDS011;38569;52.722;6.440;2022-10-16T07:14:03;6.80;;;2.13;;
52674;SDS011;38569;52.722;6.440;2022-10-16T07:16:30;6.10;;;2.22;;
52674;SDS011;38569;52.722;6.440;2022-10-16T07:18:57;6.30;;;2.33;;
52674;SDS011;38569;52.722;6.440;2022-10-16T07:21:25;3.97;;;2.00;;
52674;SDS011;38569;52.722;6.440;2022-10-16T07:23:54;5.47;;;2.72;;
52674;SDS011;38569;52.722;6.440;2022-10-16T07:26:24;6.47;;;2.58;;
52674;SDS011;38569;52.722;6.440;2022-10-16T07:28:51;8.85;;;2.38;;
52674;SDS011;38569;52.722;6.440;2022-10-16T07:31:17;8.73;;;3.00;;
52674;SDS011;38569;52.722;6.440;2022-10-16T07:33:45;3.78;;;1.88;;
52674;SDS011;38569;52.722;6.440;2022-10-16T07:36:13;9.27;;;2.60;;
52674;SDS011;38569;52.722;6.440;2022-10-16T07:38:39;4.90;;;2.38;;
52674;SDS011;38569;52.722;6.440;2022-10-16T07:41:08;4.57;;;2.03;;
52674;SDS011;38569;52.722;6.440;2022-10-16T07:43:36;5.85;;;2.45;;
52674;SDS011;38569;52.722;6.440;2022-10-16T07:46:02;6.63;;;1.83;;
52674;SDS011;38569;52.722;6.440;2022-10-16T07:48:29;7.60;;;1.85;;
52674;SDS011;38569;52.722;6.440;2022-10-16T07:50:59;6.82;;;1.67;;
52674;SDS011;38569;52.722;6.440;2022-10-16T07:53:26;6.53;;;1.90;;
52674;SDS011;38569;52.722;6.440;2022-10-16T07:55:52;8.05;;;2.10;;
52674;SDS011;38569;52.722;6.440;2022-10-16T07:58:22;6.47;;;1.55;;
52674;SDS011;38569;52.722;6.440;2022-10-16T08:00:48;3.53;;;1.52;;
52674;SDS011;38569;52.722;6.440;2022-10-16T08:03:13;3.35;;;1.10;;
52674;SDS011;38569;52.722;6.440;2022-10-16T08:05:39;3.33;;;1.48;;
52674;SDS011;38569;52.722;6.440;2022-10-16T08:08:05;3.05;;;1.02;;
52674;SDS011;38569;52.722;6.440;2022-10-16T08:10:30;5.97;;;1.50;;
52674;SDS011;38569;52.722;6.440;2022-10-16T08:12:56;6.15;;;1.45;;
52674;SDS011;38569;52.722;6.440;2022-10-16T08:15:23;4.07;;;1.20;;
52674;SDS011;38569;52.722;6.440;2022-10-16T08:17:56;8.57;;;1.50;;
52674;SDS011;38569;52.722;6.440;2022-10-16T08:22:49;7.63;;;2.17;;
52674;SDS011;38569;52.722;6.440;2022-10-16T08:25:15;5.15;;;2.40;;
52674;SDS011;38569;52.722;6.440;2022-10-16T08:27:40;5.35;;;2.03;;
52674;SDS011;38569;52.722;6.440;2022-10-16T08:30:06;6.63;;;2.53;;
52674;SDS011;38569;52.722;6.440;2022-10-16T08:32:33;6.32;;;2.50;;
52674;SDS011;38569;52.722;6.440;2022-10-16T08:34:58;3.03;;;2.13;;
52674;SDS011;38569;52.722;6.440;2022-10-16T08:37:24;7.93;;;2.83;;
52674;SDS011;38569;52.722;6.440;2022-10-16T08:39:50;4.78;;;2.00;;
52674;SDS011;38569;52.722;6.440;2022-10-16T08:42:28;8.02;;;2.30;;
52674;SDS011;38569;52.722;6.440;2022-10-16T08:51:01;5.65;;;2.03;;
52674;SDS011;38569;52.722;6.440;2022-10-16T08:53:30;9.63;;;2.47;;
52674;SDS011;38569;52.722;6.440;2022-10-16T08:56:01;7.22;;;2.67;;
52674;SDS011;38569;52.722;6.440;2022-10-16T08:58:28;6.78;;;2.17;;
52674;SDS011;38569;52.722;6.440;2022-10-16T09:00:59;6.53;;;2.65;;
52674;SDS011;38569;52.722;6.440;2022-10-16T09:04:17;7.85;;;2.30;;
52674;SDS011;38569;52.722;6.440;2022-10-16T09:06:45;5.75;;;2.17;;
52674;SDS011;38569;52.722;6.440;2022-10-16T09:09:25;7.30;;;2.45;;
52674;SDS011;38569;52.722;6.440;2022-10-16T09:14:55;6.25;;;3.35;;
52674;SDS011;38569;52.722;6.440;2022-10-16T09:20:13;8.50;;;1.88;;
52674;SDS011;38569;52.722;6.440;2022-10-16T09:22:42;5.70;;;2.17;;
52674;SDS011;38569;52.722;6.440;2022-10-16T09:25:12;8.18;;;2.10;;
52674;SDS011;38569;52.722;6.440;2022-10-16T09:27:44;9.95;;;1.85;;
52674;SDS011;38569;52.722;6.440;2022-10-16T09:30:14;6.10;;;2.03;;
52674;SDS011;38569;52.722;6.440;2022-10-16T09:32:44;6.75;;;2.03;;
52674;SDS011;38569;52.722;6.440;2022-10-16T09:35:14;8.65;;;2.28;;
52674;SDS011;38569;52.722;6.440;2022-10-16T09:37:43;8.32;;;2.00;;
52674;SDS011;38569;52.722;6.440;2022-10-16T09:40:12;10.00;;;3.40;;
52674;SDS011;38569;52.722;6.440;2022-10-16T09:42:48;16.60;;;2.78;;
52674;SDS011;38569;52.722;6.440;2022-10-16T09:45:21;7.30;;;1.88;;
52674;SDS011;38569;52.722;6.440;2022-10-16T09:47:48;7.60;;;1.70;;
52674;SDS011;38569;52.722;6.440;2022-10-16T09:50:27;11.25;;;2.58;;
52674;SDS011;38569;52.722;6.440;2022-10-16T09:53:10;9.45;;;2.80;;
52674;SDS011;38569;52.722;6.440;2022-10-16T09:55:47;7.63;;;1.83;;
52674;SDS011;38569;52.722;6.440;2022-10-16T09:58:15;9.65;;;2.30;;
52674;SDS011;38569;52.722;6.440;2022-10-16T10:00:41;8.35;;;1.98;;
52674;SDS011;38569;52.722;6.440;2022-10-16T10:03:17;17.30;;;3.13;;
52674;SDS011;38569;52.722;6.440;2022-10-16T10:06:23;7.47;;;2.22;;
52674;SDS011;38569;52.722;6.440;2022-10-16T10:17:17;9.75;;;2.25;;
52674;SDS011;38569;52.722;6.440;2022-10-16T10:22:23;11.70;;;2.47;;
52674;SDS011;38569;52.722;6.440;2022-10-16T10:24:54;10.18;;;2.22;;
52674;SDS011;38569;52.722;6.440;2022-10-16T10:27:21;7.05;;;2.28;;
52674;SDS011;38569;52.722;6.440;2022-10-16T10:30:07;12.82;;;2.50;;
52674;SDS011;38569;52.722;6.440;2022-10-16T10:32:52;11.70;;;2.83;;
52674;SDS011;38569;52.722;6.440;2022-10-16T10:35:22;11.45;;;2.70;;
52674;SDS011;38569;52.722;6.440;2022-10-16T10:46:17;9.88;;;2.58;;
52674;SDS011;38569;52.722;6.440;2022-10-16T10:49:02;10.07;;;2.45;;
52674;SDS011;38569;52.722;6.440;2022-10-16T10:51:37;9.30;;;1.83;;
52674;SDS011;38569;52.722;6.440;2022-10-16T10:54:10;9.88;;;2.30;;
52674;SDS011;38569;52.722;6.440;2022-10-16T10:59:38;10.98;;;2.55;;
52674;SDS011;38569;52.722;6.440;2022-10-16T11:02:31;11.43;;;2.75;;
52674;SDS011;38569;52.722;6.440;2022-10-16T11:08:10;9.75;;;3.17;;
52674;SDS011;38569;52.722;6.440;2022-10-16T11:10:57;6.65;;;2.55;;
52674;SDS011;38569;52.722;6.440;2022-10-16T11:13:42;11.43;;;2.20;;
52674;SDS011;38569;52.722;6.440;2022-10-16T11:16:18;11.00;;;2.30;;
52674;SDS011;38569;52.722;6.440;2022-10-16T11:18:49;8.02;;;2.40;;
52674;SDS011;38569;52.722;6.440;2022-10-16T11:21:18;17.17;;;3.65;;
52674;SDS011;38569;52.722;6.440;2022-10-16T11:24:30;7.75;;;2.10;;
52674;SDS011;38569;52.722;6.440;2022-10-16T11:26:41;7.13;;;1.85;;
52674;SDS011;38569;52.722;6.440;2022-10-16T11:29:20;9.65;;;2.15;;
52674;SDS011;38569;52.722;6.440;2022-10-16T11:31:52;8.88;;;2.25;;
52674;SDS011;38569;52.722;6.440;2022-10-16T11:34:26;13.55;;;2.45;;
52674;SDS011;38569;52.722;6.440;2022-10-16T11:36:59;9.75;;;2.88;;
52674;SDS011;38569;52.722;6.440;2022-10-16T11:39:36;9.82;;;2.50;;
52674;SDS011;38569;52.722;6.440;2022-10-16T11:44:38;12.63;;;2.53;;
52674;SDS011;38569;52.722;6.440;2022-10-16T11:49:58;9.27;;;1.95;;
52674;SDS011;38569;52.722;6.440;2022-10-16T11:58:32;8.27;;;2.28;;
52674;SDS011;38569;52.722;6.440;2022-10-16T12:01:22;10.70;;;2.92;;
52674;SDS011;38569;52.722;6.440;2022-10-16T12:06:52;15.32;;;3.13;;
52674;SDS011;38569;52.722;6.440;2022-10-16T12:09:31;12.45;;;6.10;;
52674;SDS011;38569;52.722;6.440;2022-10-16T12:12:00;13.90;;;5.70;;
52674;SDS011;38569;52.722;6.440;2022-10-16T12:17:42;19.30;;;8.15;;
52674;SDS011;38569;52.722;6.440;2022-10-16T12:22:37;12.32;;;4.85;;
52674;SDS011;38569;52.722;6.440;2022-10-16T12:28:18;9.48;;;3.88;;
52674;SDS011;38569;52.722;6.440;2022-10-16T12:31:00;9.85;;;3.78;;
52674;SDS011;38569;52.722;6.440;2022-10-16T12:33:28;14.32;;;5.28;;
52674;SDS011;38569;52.722;6.440;2022-10-16T12:35:56;12.48;;;4.18;;
52674;SDS011;38569;52.722;6.440;2022-10-16T12:38:36;16.80;;;5.30;;
52674;SDS011;38569;52.722;6.440;2022-10-16T12:41:23;15.15;;;5.03;;
52674;SDS011;38569;52.722;6.440;2022-10-16T12:43:53;11.90;;;3.72;;
52674;SDS011;38569;52.722;6.440;2022-10-16T12:46:21;13.70;;;4.97;;
52674;SDS011;38569;52.722;6.440;2022-10-16T12:48:49;14.02;;;6.57;;
52674;SDS011;38569;52.722;6.440;2022-10-16T12:51:23;16.73;;;5.35;;
52674;SDS011;38569;52.722;6.440;2022-10-16T12:54:13;15.25;;;3.45;;
52674;SDS011;38569;52.722;6.440;2022-10-16T13:04:55;9.50;;;2.42;;
52674;SDS011;38569;52.722;6.440;2022-10-16T13:07:38;14.80;;;2.95;;
52674;SDS011;38569;52.722;6.440;2022-10-16T13:19:01;13.60;;;3.35;;
52674;SDS011;38569;52.722;6.440;2022-10-16T13:24:38;8.95;;;2.33;;
52674;SDS011;38569;52.722;6.440;2022-10-16T13:28:21;8.40;;;2.03;;
52674;SDS011;38569;52.722;6.440;2022-10-16T13:30:24;7.70;;;2.13;;
52674;SDS011;38569;52.722;6.440;2022-10-16T13:33:02;8.07;;;2.25;;
52674;SDS011;38569;52.722;6.440;2022-10-16T13:35:46;7.70;;;2.40;;
52674;SDS011;38569;52.722;6.440;2022-10-16T13:38:22;11.45;;;2.60;;
52674;SDS011;38569;52.722;6.440;2022-10-16T13:43:18;7.13;;;1.80;;
52674;SDS011;38569;52.722;6.440;2022-10-16T13:45:52;7.70;;;1.75;;
52674;SDS011;38569;52.722;6.440;2022-10-16T13:48:22;8.85;;;2.25;;
52674;SDS011;38569;52.722;6.440;2022-10-16T13:53:46;13.98;;;1.95;;
52674;SDS011;38569;52.722;6.440;2022-10-16T13:56:13;11.80;;;2.15;;
52674;SDS011;38569;52.722;6.440;2022-10-16T13:58:41;6.68;;;2.08;;
52674;SDS011;38569;52.722;6.440;2022-10-16T14:01:41;8.18;;;2.30;;
52674;SDS011;38569;52.722;6.440;2022-10-16T14:04:12;5.57;;;2.03;;
52674;SDS011;38569;52.722;6.440;2022-10-16T14:06:43;7.72;;;1.90;;
52674;SDS011;38569;52.722;6.440;2022-10-16T14:09:17;8.57;;;2.72;;
52674;SDS011;38569;52.722;6.440;2022-10-16T14:11:50;12.80;;;3.03;;
52674;SDS011;38569;52.722;6.440;2022-10-16T14:14:22;6.00;;;1.67;;
52674;SDS011;38569;52.722;6.440;2022-10-16T14:16:49;7.95;;;2.53;;
52674;SDS011;38569;52.722;6.440;2022-10-16T14:19:18;7.60;;;1.65;;
52674;SDS011;38569;52.722;6.440;2022-10-16T14:21:49;9.02;;;3.15;;
52674;SDS011;38569;52.722;6.440;2022-10-16T14:24:25;6.97;;;1.60;;
52674;SDS011;38569;52.722;6.440;2022-10-16T14:26:52;9.35;;;2.25;;
52674;SDS011;38569;52.722;6.440;2022-10-16T14:29:21;11.07;;;4.75;;
52674;SDS011;38569;52.722;6.440;2022-10-16T14:34:26;10.13;;;4.97;;
52674;SDS011;38569;52.722;6.440;2022-10-16T14:36:58;10.45;;;4.47;;
52674;SDS011;38569;52.722;6.440;2022-10-16T14:42:14;7.25;;;2.63;;
52674;SDS011;38569;52.722;6.440;2022-10-16T14:44:42;10.10;;;2.08;;
52674;SDS011;38569;52.722;6.440;2022-10-16T14:47:09;10.60;;;3.03;;
52674;SDS011;38569;52.722;6.440;2022-10-16T14:49:41;6.40;;;2.33;;
52674;SDS011;38569;52.722;6.440;2022-10-16T14:52:11;9.48;;;1.80;;
52674;SDS011;38569;52.722;6.440;2022-10-16T14:54:37;9.43;;;2.08;;
52674;SDS011;38569;52.722;6.440;2022-10-16T14:57:03;10.15;;;2.53;;
52674;SDS011;38569;52.722;6.440;2022-10-16T14:59:37;9.27;;;1.90;;
52674;SDS011;38569;52.722;6.440;2022-10-16T15:02:24;11.77;;;2.08;;
52674;SDS011;38569;52.722;6.440;2022-10-16T15:05:02;7.03;;;2.83;;
52674;SDS011;38569;52.722;6.440;2022-10-16T15:07:40;7.50;;;2.75;;
52674;SDS011;38569;52.722;6.440;2022-10-16T15:10:06;13.88;;;2.67;;
52674;SDS011;38569;52.722;6.440;2022-10-16T15:12:32;7.68;;;2.00;;
52674;SDS011;38569;52.722;6.440;2022-10-16T15:14:57;7.68;;;2.33;;
52674;SDS011;38569;52.722;6.440;2022-10-16T15:17:23;10.65;;;2.05;;
52674;SDS011;38569;52.722;6.440;2022-10-16T15:19:49;9.93;;;2.90;;
52674;SDS011;38569;52.722;6.440;2022-10-16T15:22:16;8.38;;;3.90;;
52674;SDS011;38569;52.722;6.440;2022-10-16T15:24:42;10.18;;;3.83;;
52674;SDS011;38569;52.722;6.440;2022-10-16T15:27:07;10.50;;;3.47;;
52674;SDS011;38569;52.722;6.440;2022-10-16T15:29:33;7.72;;;3.53;;
52674;SDS011;38569;52.722;6.440;2022-10-16T15:31:59;8.38;;;4.00;;
52674;SDS011;38569;52.722;6.440;2022-10-16T15:34:25;11.90;;;3.83;;
52674;SDS011;38569;52.722;6.440;2022-10-16T15:36:50;7.07;;;2.88;;
52674;SDS011;38569;52.722;6.440;2022-10-16T15:39:17;7.75;;;3.10;;
52674;SDS011;38569;52.722;6.440;2022-10-16T15:41:45;7.32;;;2.83;;
52674;SDS011;38569;52.722;6.440;2022-10-16T15:44:16;11.00;;;3.60;;
52674;SDS011;38569;52.722;6.440;2022-10-16T15:46:42;7.63;;;2.80;;
52674;SDS011;38569;52.722;6.440;2022-10-16T15:49:08;10.65;;;3.42;;
52674;SDS011;38569;52.722;6.440;2022-10-16T15:51:37;12.20;;;3.58;;
52674;SDS011;38569;52.722;6.440;2022-10-16T15:54:05;10.73;;;3.65;;
52674;SDS011;38569;52.722;6.440;2022-10-16T15:56:30;12.95;;;4.10;;
52674;SDS011;38569;52.722;6.440;2022-10-16T15:58:58;14.57;;;6.90;;
52674;SDS011;38569;52.722;6.440;2022-10-16T16:01:25;11.75;;;5.30;;
52674;SDS011;38569;52.722;6.440;2022-10-16T16:03:52;10.75;;;4.43;;
52674;SDS011;38569;52.722;6.440;2022-10-16T16:06:18;13.77;;;5.45;;
52674;SDS011;38569;52.722;6.440;2022-10-16T16:08:45;13.82;;;4.85;;
52674;SDS011;38569;52.722;6.440;2022-10-16T16:11:11;12.88;;;5.03;;
52674;SDS011;38569;52.722;6.440;2022-10-16T16:13:38;12.15;;;5.18;;
52674;SDS011;38569;52.722;6.440;2022-10-16T16:16:09;12.57;;;5.35;;
52674;SDS011;38569;52.722;6.440;2022-10-16T16:18:36;19.45;;;7.95;;
52674;SDS011;38569;52.722;6.440;2022-10-16T16:21:03;23.85;;;12.05;;
52674;SDS011;38569;52.722;6.440;2022-10-16T16:23:29;19.83;;;9.90;;
52674;SDS011;38569;52.722;6.440;2022-10-16T16:26:11;22.10;;;8.70;;
52674;SDS011;38569;52.722;6.440;2022-10-16T16:28:39;13.98;;;7.57;;
52674;SDS011;38569;52.722;6.440;2022-10-16T16:31:06;16.13;;;7.18;;
52674;SDS011;38569;52.722;6.440;2022-10-16T16:33:32;12.23;;;6.35;;
52674;SDS011;38569;52.722;6.440;2022-10-16T16:35:58;14.00;;;6.57;;
52674;SDS011;38569;52.722;6.440;2022-10-16T16:38:25;13.57;;;6.22;;
52674;SDS011;38569;52.722;6.440;2022-10-16T16:40:51;9.20;;;3.97;;
52674;SDS011;38569;52.722;6.440;2022-10-16T16:43:17;8.82;;;3.35;;
52674;SDS011;38569;52.722;6.440;2022-10-16T16:45:44;10.52;;;3.83;;
52674;SDS011;38569;52.722;6.440;2022-10-16T16:48:09;10.18;;;3.05;;